Time;durP1;ratioP1;P1;durP2;ratioP2;P2;SDS_P1;SDS_P2;PMS_P1;PMS_P2;Temp;Humidity;BMP_temperature;BMP_pressure;BME280_temperature;BME280_humidity;BME280_pressure;Samples;Min_cycle;Max_cycle;Signal;HPM_P1;HPM_P2
2022/05/04 00:01:41;;;;;;;;;;;8.30;99.90;;;;;;5053824;28;19925;-69
2022/05/04 00:04:07;;;;;;;;;;;8.30;99.90;;;;;;5053712;28;20402;-68
2022/05/04 00:06:32;;;;;;;;;;;8.30;99.90;;;;;;5053501;28;19991;-68
2022/05/04 00:08:58;;;;;;;;;;;8.30;99.90;;;;;;5053367;28;19925;-68
2022/05/04 00:11:24;;;;;;;;;;;9.30;99.90;;;;;;5053463;28;19925;-68
2022/05/04 00:13:50;;;;;;;;;;;8.30;99.90;;;;;;5053652;28;19925;-68
2022/05/04 00:16:15;;;;;;;;;;;8.40;99.90;;;;;;5052520;28;19928;-69
2022/05/04 00:18:41;;;;;;;;;;;8.20;99.90;;;;;;5053309;28;19928;-69
2022/05/04 00:21:07;;;;;;;;;;;8.10;99.90;;;;;;5053453;28;19935;-70
2022/05/04 00:23:33;;;;;;;;;;;8.20;99.90;;;;;;5053560;28;19932;-68
2022/05/04 00:25:59;;;;;;;;;;;8.10;99.90;;;;;;5053205;28;20360;-69
2022/05/04 00:28:24;;;;;;;;;;;8.20;99.90;;;;;;5052602;28;19925;-68
2022/05/04 00:30:50;;;;;;;;;;;8.90;99.90;;;;;;5053385;28;19925;-69
2022/05/04 00:33:15;;;;;;;;;;;8.00;99.90;;;;;;5052356;28;19929;-71
2022/05/04 00:35:44;;;;;;;;;;;8.00;99.90;;;;;;5052457;28;19932;-71
2022/05/04 00:38:10;;;;;;;;;;;8.00;99.90;;;;;;5053347;28;19928;-68
2022/05/04 00:40:35;;;;;;;;;;;8.00;99.90;;;;;;5053286;28;19924;-69
2022/05/04 00:43:01;;;;;;;;;;;8.00;99.90;;;;;;5052144;28;20338;-71
2022/05/04 00:45:27;;;;;;;;;;;8.90;99.90;;;;;;5052178;28;19936;-69
2022/05/04 00:47:52;;;;;;;;;;;8.20;99.90;;;;;;5053262;28;19924;-71
2022/05/04 00:50:18;;;;;;;;;;;9.10;99.90;;;;;;5053395;28;19925;-69
2022/05/04 00:52:44;;;;;;;;;;;8.40;99.90;;;;;;5053119;28;20364;-70
2022/05/04 00:55:10;;;;;;;;;;;8.10;99.90;;;;;;5052141;28;19928;-68
2022/05/04 01:00:22;;;;;;;;;;;8.60;99.90;;;;;;5056959;28;20396;-70
2022/05/04 01:02:48;;;;;;;;;;;8.10;99.90;;;;;;5056888;28;19972;-69
2022/05/04 01:05:13;;;;;;;;;;;8.10;99.90;;;;;;5056932;28;20026;-69
2022/05/04 01:07:42;;;;;;;;;;;8.80;99.90;;;;;;5056754;28;20383;-69
2022/05/04 01:10:08;;;;;;;;;;;8.10;99.90;;;;;;5055341;28;19955;-68
2022/05/04 01:12:33;;;;;;;;;;;8.00;99.90;;;;;;5056739;28;19932;-68
2022/05/04 01:14:59;;;;;;;;;;;8.00;99.90;;;;;;5056574;28;19929;-71
2022/05/04 01:17:27;;;;;;;;;;;8.00;99.90;;;;;;5055441;28;19931;-71
2022/05/04 01:19:52;;;;;;;;;;;8.00;99.90;;;;;;5055618;28;19929;-68
2022/05/04 01:22:18;;;;;;;;;;;8.00;99.90;;;;;;5056450;28;19980;-69
2022/05/04 01:24:43;;;;;;;;;;;8.00;99.90;;;;;;5055228;28;19939;-69
2022/05/04 01:27:12;;;;;;;;;;;8.20;99.90;;;;;;5056548;28;19928;-69
2022/05/04 01:29:37;;;;;;;;;;;8.00;99.90;;;;;;5055190;28;19975;-68
2022/05/04 01:32:03;;;;;;;;;;;8.40;99.90;;;;;;5056321;28;19925;-68
2022/05/04 01:34:29;;;;;;;;;;;8.00;99.90;;;;;;5056356;28;19925;-69
2022/05/04 01:36:54;;;;;;;;;;;7.90;99.90;;;;;;5056229;28;19924;-69
2022/05/04 01:39:20;;;;;;;;;;;9.50;99.90;;;;;;5056573;28;19925;-68
2022/05/04 01:42:03;;;;;;;;;;;7.90;99.90;;;;;;5056012;28;19986;-71
2022/05/04 01:44:29;;;;;;;;;;;8.00;99.90;;;;;;5056039;28;20019;-69
2022/05/04 01:46:55;;;;;;;;;;;8.00;99.90;;;;;;5055081;28;20019;-70
2022/05/04 01:49:21;;;;;;;;;;;7.90;99.90;;;;;;5055984;28;19925;-71
2022/05/04 01:51:46;;;;;;;;;;;7.90;99.90;;;;;;5054819;28;20392;-70
2022/05/04 01:54:12;;;;;;;;;;;7.90;99.90;;;;;;5054960;28;19924;-71
2022/05/04 01:56:38;;;;;;;;;;;8.10;99.90;;;;;;5055693;28;20287;-69
2022/05/04 01:59:03;;;;;;;;;;;7.90;99.90;;;;;;5055890;28;20376;-71
2022/05/04 02:01:29;;;;;;;;;;;8.00;99.90;;;;;;5054702;28;20015;-68
2022/05/04 02:03:55;;;;;;;;;;;8.00;99.90;;;;;;5055801;28;19925;-70
2022/05/04 02:06:20;;;;;;;;;;;8.00;99.90;;;;;;5055462;28;19987;-70
2022/05/04 02:08:46;;;;;;;;;;;8.00;99.90;;;;;;5055053;28;20016;-71
2022/05/04 02:11:12;;;;;;;;;;;8.20;99.90;;;;;;5054148;28;20291;-68
2022/05/04 02:13:39;;;;;;;;;;;8.40;99.90;;;;;;5054934;28;20385;-69
2022/05/04 02:16:05;;;;;;;;;;;6.50;99.90;;;;;;5055424;28;19924;-69
2022/05/04 02:18:32;;;;;;;;;;;8.60;99.90;;;;;;5055442;28;19972;-69
2022/05/04 02:20:58;;;;;;;;;;;7.90;99.90;;;;;;5055371;28;19925;-71
2022/05/04 02:23:24;;;;;;;;;;;8.80;99.90;;;;;;5055388;28;19990;-69
2022/05/04 02:25:49;;;;;;;;;;;7.90;99.90;;;;;;5055116;28;19925;-69
2022/05/04 02:28:15;;;;;;;;;;;7.90;99.90;;;;;;5055394;28;20410;-69
2022/05/04 02:30:40;;;;;;;;;;;8.70;99.90;;;;;;5054261;28;19925;-69
2022/05/04 02:33:06;;;;;;;;;;;8.00;99.90;;;;;;5055229;28;19925;-69
2022/05/04 02:38:16;;;;;;;;;;;7.90;99.90;;;;;;5054063;28;19993;-70
2022/05/04 02:40:41;;;;;;;;;;;8.00;99.90;;;;;;5054883;28;20443;-68
2022/05/04 02:43:07;;;;;;;;;;;6.60;99.90;;;;;;5054163;28;20368;-68
2022/05/04 02:45:33;;;;;;;;;;;8.00;99.90;;;;;;5054888;28;20292;-69
2022/05/04 02:47:58;;;;;;;;;;;8.30;99.90;;;;;;5054900;28;20050;-69
2022/05/04 02:50:24;;;;;;;;;;;8.00;99.90;;;;;;5053810;28;19964;-69
2022/05/04 02:52:50;;;;;;;;;;;7.90;99.90;;;;;;5054564;28;19932;-69
2022/05/04 02:55:15;;;;;;;;;;;7.90;99.90;;;;;;5054619;28;20377;-68
2022/05/04 02:57:41;;;;;;;;;;;7.90;99.90;;;;;;5053878;28;19929;-69
2022/05/04 03:00:07;;;;;;;;;;;7.90;99.90;;;;;;5054708;28;20303;-70
2022/05/04 03:02:33;;;;;;;;;;;7.90;99.90;;;;;;5054576;28;20376;-68
2022/05/04 03:05:05;;;;;;;;;;;8.80;99.90;;;;;;5054506;28;19928;-69
2022/05/04 03:07:31;;;;;;;;;;;7.90;99.90;;;;;;5053412;28;19925;-71
2022/05/04 03:09:57;;;;;;;;;;;8.90;99.90;;;;;;5054051;28;19983;-69
2022/05/04 03:12:23;;;;;;;;;;;7.80;99.90;;;;;;5054504;28;20342;-70
2022/05/04 03:14:49;;;;;;;;;;;8.10;99.90;;;;;;5054544;28;19932;-67
2022/05/04 03:17:15;;;;;;;;;;;8.50;99.90;;;;;;5053450;28;20288;-71
2022/05/04 03:19:40;;;;;;;;;;;7.70;99.90;;;;;;5053414;28;19978;-71
2022/05/04 03:22:06;;;;;;;;;;;9.10;99.90;;;;;;5054240;28;20073;-69
2022/05/04 03:24:31;;;;;;;;;;;7.70;99.90;;;;;;5053273;28;20416;-68
2022/05/04 03:26:57;;;;;;;;;;;7.70;99.90;;;;;;5054338;28;19925;-68
2022/05/04 03:29:23;;;;;;;;;;;7.70;99.90;;;;;;5054204;28;20350;-70
2022/05/04 03:31:48;;;;;;;;;;;8.10;99.90;;;;;;5053999;28;19925;-72
2022/05/04 03:34:14;;;;;;;;;;;8.30;99.90;;;;;;5054059;28;19925;-71
2022/05/04 03:36:39;;;;;;;;;;;7.60;99.90;;;;;;5054044;28;19925;-69
2022/05/04 03:39:06;;;;;;;;;;;7.80;99.90;;;;;;5054010;28;19929;-68
2022/05/04 03:41:32;;;;;;;;;;;8.30;99.90;;;;;;5053775;28;19932;-69
2022/05/04 03:43:57;;;;;;;;;;;7.60;99.90;;;;;;5053846;28;19999;-70
2022/05/04 03:46:24;;;;;;;;;;;9.30;99.90;;;;;;5053847;28;20375;-70
2022/05/04 03:48:51;;;;;;;;;;;8.00;99.90;;;;;;5053882;28;19924;-69
2022/05/04 03:51:19;;;;;;;;;;;7.60;99.90;;;;;;5053804;28;19976;-69
2022/05/04 03:53:45;;;;;;;;;;;7.50;99.90;;;;;;5053879;28;19925;-68
2022/05/04 03:56:11;;;;;;;;;;;8.70;99.90;;;;;;5053537;28;19925;-68
2022/05/04 03:58:40;;;;;;;;;;;7.60;99.90;;;;;;5052674;28;19925;-69
2022/05/04 04:01:06;;;;;;;;;;;7.50;99.90;;;;;;5052803;28;20411;-68
2022/05/04 04:03:32;;;;;;;;;;;7.80;99.90;;;;;;5053693;28;19968;-69
2022/05/04 04:05:58;;;;;;;;;;;7.80;99.90;;;;;;5053539;28;19952;-68
2022/05/04 04:08:24;;;;;;;;;;;7.60;99.90;;;;;;5053489;28;20070;-71
2022/05/04 04:10:49;;;;;;;;;;;7.60;99.90;;;;;;5053787;28;19932;-69
2022/05/04 04:13:15;;;;;;;;;;;7.60;99.90;;;;;;5053663;28;20403;-69
2022/05/04 04:15:41;;;;;;;;;;;7.70;99.90;;;;;;5053548;28;20296;-69
2022/05/04 04:18:07;;;;;;;;;;;7.70;99.90;;;;;;5052662;28;20398;-68
2022/05/04 04:23:17;;;;;;;;;;;7.70;99.90;;;;;;5052367;28;20208;-69
2022/05/04 04:25:42;;;;;;;;;;;7.80;99.90;;;;;;5052217;28;20015;-71
2022/05/04 04:28:09;;;;;;;;;;;8.10;99.90;;;;;;5053289;28;19952;-69
2022/05/04 04:30:36;;;;;;;;;;;7.40;99.90;;;;;;5054957;28;20434;-69
2022/05/04 04:33:02;;;;;;;;;;;7.70;99.90;;;;;;5057469;28;19931;-69
2022/05/04 04:35:27;;;;;;;;;;;7.60;99.90;;;;;;5057367;28;20291;-70
2022/05/04 04:37:53;;;;;;;;;;;8.30;99.90;;;;;;5056415;28;19924;-70
2022/05/04 04:40:18;;;;;;;;;;;7.60;99.90;;;;;;5057230;28;19928;-69
2022/05/04 04:42:44;;;;;;;;;;;7.70;99.90;;;;;;5057384;28;20348;-70
2022/05/04 04:45:10;;;;;;;;;;;7.70;99.90;;;;;;5057047;28;19968;-68
2022/05/04 04:47:35;;;;;;;;;;;7.60;99.90;;;;;;5055970;28;19932;-68
2022/05/04 04:50:01;;;;;;;;;;;7.70;99.90;;;;;;5055943;28;19925;-69
2022/05/04 04:52:26;;;;;;;;;;;7.80;99.90;;;;;;5057098;28;19978;-70
2022/05/04 04:54:52;;;;;;;;;;;7.70;99.90;;;;;;5055786;28;19925;-68
2022/05/04 04:57:18;;;;;;;;;;;7.70;99.90;;;;;;5057113;28;20019;-70
2022/05/04 04:59:43;;;;;;;;;;;7.70;99.90;;;;;;5056880;28;19932;-71
2022/05/04 05:02:09;;;;;;;;;;;7.90;99.90;;;;;;5057041;28;19925;-68
2022/05/04 05:04:35;;;;;;;;;;;7.70;99.90;;;;;;5056897;28;19924;-69
2022/05/04 05:07:00;;;;;;;;;;;8.00;99.90;;;;;;5055387;28;20296;-68
2022/05/04 05:09:26;;;;;;;;;;;7.70;99.90;;;;;;5055351;28;19924;-70
2022/05/04 05:11:51;;;;;;;;;;;7.80;99.90;;;;;;5056811;28;19932;-70
2022/05/04 05:17:02;;;;;;;;;;;8.10;99.90;;;;;;5056666;28;19931;-68
2022/05/04 05:19:28;;;;;;;;;;;7.80;99.90;;;;;;5056600;28;19932;-68
2022/05/04 05:21:53;;;;;;;;;;;7.80;99.90;;;;;;5055625;28;19934;-70
2022/05/04 05:24:19;;;;;;;;;;;7.90;99.90;;;;;;5056659;28;20392;-69
2022/05/04 05:26:44;;;;;;;;;;;8.40;99.90;;;;;;5056504;28;19928;-68
2022/05/04 05:29:10;;;;;;;;;;;7.90;99.90;;;;;;5056628;28;19947;-69
2022/05/04 05:31:35;;;;;;;;;;;8.30;99.90;;;;;;5055431;28;19925;-68
2022/05/04 05:34:01;;;;;;;;;;;7.90;99.90;;;;;;5055601;28;19928;-68
2022/05/04 05:36:26;;;;;;;;;;;7.00;99.90;;;;;;5056310;28;19929;-68
2022/05/04 05:38:52;;;;;;;;;;;7.90;99.90;;;;;;5055210;28;19981;-68
2022/05/04 05:41:17;;;;;;;;;;;8.00;99.90;;;;;;5055690;28;20024;-69
2022/05/04 05:43:43;;;;;;;;;;;8.00;99.90;;;;;;5055764;28;19968;-69
2022/05/04 05:46:08;;;;;;;;;;;8.30;99.90;;;;;;5055971;28;20011;-68
2022/05/04 05:48:34;;;;;;;;;;;8.40;99.90;;;;;;5055127;28;19932;-69
2022/05/04 05:51:04;;;;;;;;;;;9.00;99.90;;;;;;5055137;28;19929;-68
2022/05/04 05:53:29;;;;;;;;;;;8.10;99.90;;;;;;5054867;28;19932;-68
2022/05/04 05:55:55;;;;;;;;;;;8.20;99.90;;;;;;5055773;28;19925;-68
2022/05/04 05:58:20;;;;;;;;;;;8.90;99.90;;;;;;5055024;28;19947;-70
2022/05/04 06:00:46;;;;;;;;;;;8.10;99.90;;;;;;5055909;28;20395;-68
2022/05/04 06:03:13;;;;;;;;;;;8.50;99.90;;;;;;5055835;28;20359;-68
2022/05/04 06:05:39;;;;;;;;;;;8.10;99.90;;;;;;5055616;28;20375;-69
2022/05/04 06:08:04;;;;;;;;;;;8.10;99.90;;;;;;5055644;28;19969;-69
2022/05/04 06:10:30;;;;;;;;;;;8.10;99.90;;;;;;5055738;28;20024;-68
2022/05/04 06:12:55;;;;;;;;;;;8.20;99.90;;;;;;5054779;28;20011;-68
2022/05/04 06:15:21;;;;;;;;;;;8.20;99.90;;;;;;5055526;28;20406;-71
2022/05/04 06:17:47;;;;;;;;;;;8.50;99.90;;;;;;5055582;28;19936;-68
2022/05/04 06:20:13;;;;;;;;;;;8.40;99.90;;;;;;5055399;28;20368;-69
2022/05/04 06:22:39;;;;;;;;;;;8.20;99.90;;;;;;5055316;28;19925;-69
2022/05/04 06:25:05;;;;;;;;;;;8.30;99.90;;;;;;5054041;28;20028;-71
2022/05/04 06:27:32;;;;;;;;;;;8.30;99.90;;;;;;5055160;28;19936;-68
2022/05/04 06:35:26;;;;;;;;;;;8.40;99.90;;;;;;5054013;28;19973;-69
2022/05/04 06:37:52;;;;;;;;;;;10.10;99.90;;;;;;5053984;28;19925;-71
2022/05/04 06:40:17;;;;;;;;;;;8.50;99.90;;;;;;5055072;28;19924;-67
2022/05/04 06:42:43;;;;;;;;;;;8.40;99.90;;;;;;5055051;28;20062;-69
2022/05/04 06:45:09;;;;;;;;;;;8.50;99.90;;;;;;5054841;28;19925;-68
2022/05/04 06:47:35;;;;;;;;;;;8.40;99.90;;;;;;5036613;28;19924;-67
2022/05/04 06:50:01;;;;;;;;;;;8.50;99.90;;;;;;5054632;28;19986;-70
2022/05/04 06:52:26;;;;;;;;;;;8.70;99.90;;;;;;5053178;28;19980;-70
2022/05/04 06:54:52;;;;;;;;;;;8.60;99.90;;;;;;5054755;28;19932;-70
2022/05/04 06:57:18;;;;;;;;;;;8.50;99.90;;;;;;5054592;28;19924;-68
2022/05/04 06:59:43;;;;;;;;;;;8.90;99.90;;;;;;5054403;28;19929;-69
2022/05/04 07:02:09;;;;;;;;;;;8.50;99.90;;;;;;5054378;28;19976;-70
2022/05/04 07:04:34;;;;;;;;;;;8.50;99.90;;;;;;5054318;28;20334;-67
2022/05/04 07:07:00;;;;;;;;;;;8.90;99.90;;;;;;5054215;28;19924;-68
2022/05/04 07:09:26;;;;;;;;;;;8.90;99.90;;;;;;5052889;28;19925;-69
2022/05/04 07:11:51;;;;;;;;;;;8.70;99.90;;;;;;5053459;28;19931;-69
2022/05/04 07:14:17;;;;;;;;;;;9.10;99.90;;;;;;5054225;28;19932;-69
2022/05/04 07:16:42;;;;;;;;;;;7.90;99.90;;;;;;5053228;28;19924;-70
2022/05/04 07:19:08;;;;;;;;;;;8.70;99.90;;;;;;5054040;28;20426;-70
2022/05/04 07:21:34;;;;;;;;;;;8.70;99.90;;;;;;5054109;28;19928;-69
2022/05/04 07:23:59;;;;;;;;;;;9.30;99.90;;;;;;5054002;28;19928;-68
2022/05/04 07:26:25;;;;;;;;;;;8.70;99.90;;;;;;5053920;28;19924;-70
2022/05/04 07:28:50;;;;;;;;;;;8.80;99.90;;;;;;5053874;28;19971;-69
2022/05/04 07:31:16;;;;;;;;;;;8.90;99.90;;;;;;5052963;28;19933;-70
2022/05/04 07:33:41;;;;;;;;;;;8.90;99.90;;;;;;5053984;28;20354;-69
2022/05/04 07:36:07;;;;;;;;;;;9.00;99.90;;;;;;5052862;28;19929;-70
2022/05/04 07:38:32;;;;;;;;;;;8.90;99.90;;;;;;5053606;28;20273;-67
2022/05/04 07:43:42;;;;;;;;;;;9.70;99.90;;;;;;5053779;28;19957;-68
2022/05/04 07:46:08;;;;;;;;;;;7.70;99.90;;;;;;5053535;28;19991;-69
2022/05/04 07:48:33;;;;;;;;;;;9.70;99.90;;;;;;5053640;28;19924;-70
2022/05/04 07:50:59;;;;;;;;;;;9.20;99.90;;;;;;5053613;28;20384;-68
2022/05/04 07:53:25;;;;;;;;;;;9.10;99.90;;;;;;5053501;28;20015;-70
2022/05/04 07:55:50;;;;;;;;;;;9.30;99.90;;;;;;5053501;28;19932;-69
2022/05/04 07:58:16;;;;;;;;;;;9.20;99.90;;;;;;5053615;28;20038;-70
2022/05/04 08:06:12;;;;;;;;;;;9.30;99.90;;;;;;5052828;28;19925;-68
2022/05/04 08:08:38;;;;;;;;;;;9.40;99.90;;;;;;5053385;28;20376;-68
2022/05/04 08:11:04;;;;;;;;;;;9.50;99.90;;;;;;5053516;28;19924;-70
2022/05/04 08:13:29;;;;;;;;;;;9.60;99.90;;;;;;5053286;28;19931;-69
2022/05/04 08:15:55;;;;;;;;;;;9.70;99.90;;;;;;5053187;28;19932;-68
2022/05/04 08:18:20;;;;;;;;;;;9.70;99.90;;;;;;5053161;28;19925;-68
2022/05/04 08:20:47;;;;;;;;;;;10.30;99.90;;;;;;5053090;28;19931;-70
2022/05/04 08:23:12;;;;;;;;;;;10.10;99.90;;;;;;5053283;28;20083;-69
2022/05/04 08:25:38;;;;;;;;;;;9.80;99.90;;;;;;5053127;28;20506;-67
2022/05/04 08:28:04;;;;;;;;;;;9.80;99.90;;;;;;5053364;28;20019;-69
2022/05/04 08:30:29;;;;;;;;;;;9.90;99.90;;;;;;5053173;28;20300;-69
2022/05/04 08:32:55;;;;;;;;;;;10.00;99.90;;;;;;5053086;28;20396;-68
2022/05/04 08:35:20;;;;;;;;;;;10.00;99.90;;;;;;5053136;28;19931;-70
2022/05/04 08:37:46;;;;;;;;;;;10.00;99.90;;;;;;5052606;28;19925;-68
2022/05/04 08:40:12;;;;;;;;;;;10.00;99.90;;;;;;5053361;28;19931;-70
2022/05/04 08:42:42;;;;;;;;;;;10.00;99.90;;;;;;5053355;28;19928;-71
2022/05/04 08:45:10;;;;;;;;;;;10.20;99.90;;;;;;5052725;28;19935;-68
2022/05/04 08:47:37;;;;;;;;;;;10.30;99.90;;;;;;5053170;28;20303;-68
2022/05/04 08:50:07;;;;;;;;;;;10.40;99.90;;;;;;5053005;28;19925;-68
2022/05/04 08:52:33;;;;;;;;;;;10.40;99.90;;;;;;5052072;28;19925;-69
2022/05/04 08:54:59;;;;;;;;;;;10.30;99.90;;;;;;5052076;28;20016;-71
2022/05/04 08:57:24;;;;;;;;;;;10.30;99.90;;;;;;5053165;28;19979;-70
2022/05/04 08:59:50;;;;;;;;;;;10.40;99.90;;;;;;5035661;28;19925;-68
2022/05/04 09:02:16;;;;;;;;;;;10.40;99.90;;;;;;5052105;28;19925;-69
2022/05/04 09:04:42;;;;;;;;;;;10.20;99.90;;;;;;5052971;28;20395;-69
2022/05/04 09:07:26;;;;;;;;;;;10.20;99.90;;;;;;5053081;28;19925;-69
2022/05/04 09:09:52;;;;;;;;;;;10.20;99.90;;;;;;5051794;28;19925;-69
2022/05/04 09:12:18;;;;;;;;;;;10.20;99.90;;;;;;5052979;28;19975;-69
2022/05/04 09:14:44;;;;;;;;;;;10.30;99.90;;;;;;5052822;28;19924;-70
2022/05/04 09:17:10;;;;;;;;;;;10.50;99.90;;;;;;5052657;28;19932;-69
2022/05/04 09:19:36;;;;;;;;;;;10.60;99.90;;;;;;5056484;28;19924;-69
2022/05/04 09:22:01;;;;;;;;;;;10.90;99.90;;;;;;5056669;28;19931;-70
2022/05/04 09:24:28;;;;;;;;;;;10.90;99.90;;;;;;5056522;28;20038;-68
2022/05/04 09:26:55;;;;;;;;;;;10.90;99.90;;;;;;5056405;28;19928;-69
2022/05/04 09:29:22;;;;;;;;;;;11.00;99.90;;;;;;5056402;28;19932;-70
2022/05/04 09:31:47;;;;;;;;;;;11.80;99.90;;;;;;5049037;28;19929;-71
2022/05/04 09:34:13;;;;;;;;;;;11.20;99.90;;;;;;5054805;28;19925;-69
2022/05/04 09:44:54;;;;;;;;;;;11.20;99.90;;;;;;5038987;28;20372;-68
2022/05/04 09:45:07;;;;;;;;;;;11.10;99.90;;;;;;5055940;28;19940;-68
2022/05/04 09:47:35;;;;;;;;;;;11.30;99.90;;;;;;5044498;28;19972;-69
2022/05/04 09:50:04;;;;;;;;;;;11.10;99.90;;;;;;5047120;28;19925;-69
2022/05/04 09:52:40;;;;;;;;;;;11.10;99.90;;;;;;5035952;28;19932;-68
2022/05/04 09:55:16;;;;;;;;;;;11.30;99.90;;;;;;5037675;28;19933;-68
2022/05/04 09:57:42;;;;;;;;;;;10.90;99.90;;;;;;5056116;28;20384;-69
2022/05/04 10:00:09;;;;;;;;;;;10.80;99.90;;;;;;5023610;28;19925;-70
2022/05/04 10:02:37;;;;;;;;;;;10.90;99.90;;;;;;5038187;28;19992;-68
2022/05/04 10:05:03;;;;;;;;;;;11.00;99.90;;;;;;5054402;28;20403;-67
2022/05/04 10:07:29;;;;;;;;;;;11.00;99.90;;;;;;5052707;28;19928;-71
2022/05/04 10:09:55;;;;;;;;;;;11.10;99.90;;;;;;5054321;28;19931;-68
2022/05/04 10:12:21;;;;;;;;;;;11.30;99.90;;;;;;5035819;28;20028;-70
2022/05/04 10:14:46;;;;;;;;;;;11.40;99.90;;;;;;5052018;28;19925;-68
2022/05/04 10:17:13;;;;;;;;;;;11.50;99.90;;;;;;5055460;28;19924;-69
2022/05/04 10:19:44;;;;;;;;;;;11.40;99.40;;;;;;5055391;28;19925;-68
2022/05/04 10:22:12;;;;;;;;;;;11.40;98.20;;;;;;5055418;28;19925;-69
2022/05/04 10:24:37;;;;;;;;;;;11.40;99.90;;;;;;5054986;28;20376;-69
2022/05/04 10:27:15;;;;;;;;;;;11.50;95.60;;;;;;5054070;28;19932;-69
2022/05/04 10:32:44;;;;;;;;;;;11.70;92.00;;;;;;5052903;28;19967;-69
2022/05/04 10:35:20;;;;;;;;;;;11.70;96.70;;;;;;5054578;28;19935;-70
2022/05/04 10:37:58;;;;;;;;;;;11.70;98.80;;;;;;5040484;28;19932;-70
2022/05/04 10:40:34;;;;;;;;;;;11.80;97.30;;;;;;5053187;28;19990;-68
2022/05/04 10:43:05;;;;;;;;;;;11.80;99.90;;;;;;5034634;28;19975;-69
2022/05/04 10:45:35;;;;;;;;;;;11.90;99.20;;;;;;5038224;28;20308;-69
2022/05/04 10:48:09;;;;;;;;;;;11.90;96.00;;;;;;5049657;28;19932;-68
2022/05/04 10:50:58;;;;;;;;;;;11.90;97.90;;;;;;5038341;28;19929;-68
2022/05/04 10:53:23;;;;;;;;;;;12.00;97.50;;;;;;5010742;28;19930;-69
2022/05/04 10:56:03;;;;;;;;;;;12.10;99.30;;;;;;5012477;28;19925;-70
2022/05/04 10:58:31;;;;;;;;;;;12.00;98.10;;;;;;4995197;28;19926;-68
2022/05/04 11:01:14;;;;;;;;;;;11.90;96.90;;;;;;4996119;28;20056;-69
2022/05/04 11:04:08;;;;;;;;;;;11.90;94.60;;;;;;5011531;28;19925;-68
2022/05/04 11:06:47;;;;;;;;;;;11.90;96.90;;;;;;4997885;28;20020;-68
2022/05/04 11:09:14;;;;;;;;;;;11.90;97.00;;;;;;5011648;28;19977;-68
2022/05/04 11:11:42;;;;;;;;;;;11.90;95.10;;;;;;4994768;28;19925;-67
2022/05/04 11:14:08;;;;;;;;;;;11.90;94.80;;;;;;5027288;28;20384;-69
2022/05/04 11:16:33;;;;;;;;;;;11.80;93.20;;;;;;5011952;28;19929;-69
2022/05/04 11:18:59;;;;;;;;;;;11.80;97.00;;;;;;5011212;28;19984;-69
2022/05/04 11:21:26;;;;;;;;;;;12.70;98.90;;;;;;5012120;28;19925;-69
2022/05/04 11:23:52;;;;;;;;;;;11.80;99.00;;;;;;5009935;28;19929;-68
2022/05/04 11:26:19;;;;;;;;;;;12.30;98.90;;;;;;5011996;28;19929;-69
2022/05/04 11:28:45;;;;;;;;;;;11.90;99.80;;;;;;4993315;28;19965;-70
2022/05/04 11:31:11;;;;;;;;;;;11.90;99.20;;;;;;5029555;28;19967;-67
2022/05/04 11:33:36;;;;;;;;;;;12.00;99.90;;;;;;5043981;28;19970;-65
2022/05/04 11:36:02;;;;;;;;;;;12.10;99.20;;;;;;5033737;28;19929;-69
2022/05/04 11:38:28;;;;;;;;;;;12.20;97.90;;;;;;5042667;28;19925;-67
2022/05/04 11:40:54;;;;;;;;;;;12.20;94.10;;;;;;5050875;28;19928;-68
2022/05/04 11:43:33;;;;;;;;;;;12.20;94.80;;;;;;5051991;28;19951;-69
2022/05/04 11:46:09;;;;;;;;;;;12.10;98.10;;;;;;5053464;28;19925;-70
2022/05/04 11:48:39;;;;;;;;;;;12.10;96.60;;;;;;5051982;28;19929;-68
2022/05/04 11:51:05;;;;;;;;;;;12.00;96.50;;;;;;5038580;28;20277;-68
2022/05/04 11:53:31;;;;;;;;;;;12.10;92.80;;;;;;5030248;28;19925;-69
2022/05/04 11:55:58;;;;;;;;;;;11.90;95.70;;;;;;5032869;28;19925;-69
2022/05/04 11:58:24;;;;;;;;;;;12.00;97.80;;;;;;5032920;28;19925;-68
2022/05/04 12:00:50;;;;;;;;;;;12.10;94.80;;;;;;5033618;28;20448;-67
2022/05/04 12:03:15;;;;;;;;;;;12.10;95.70;;;;;;5033545;28;19980;-68
2022/05/04 12:05:41;;;;;;;;;;;12.10;96.90;;;;;;5049089;28;19929;-68
2022/05/04 12:08:07;;;;;;;;;;;12.10;96.80;;;;;;5033797;28;19979;-67
2022/05/04 12:10:33;;;;;;;;;;;12.20;96.40;;;;;;5033719;28;19929;-70
2022/05/04 12:13:00;;;;;;;;;;;12.10;93.10;;;;;;5033595;28;20343;-68
2022/05/04 12:15:26;;;;;;;;;;;12.10;90.50;;;;;;5038306;28;19925;-67
2022/05/04 12:17:56;;;;;;;;;;;12.10;93.00;;;;;;5045637;28;19925;-69
2022/05/04 12:20:22;;;;;;;;;;;12.10;90.70;;;;;;5052706;28;20647;-70
2022/05/04 12:22:48;;;;;;;;;;;12.10;98.70;;;;;;5053429;28;20372;-68
2022/05/04 12:25:13;;;;;;;;;;;12.20;99.50;;;;;;5052399;28;20078;-69
2022/05/04 12:27:39;;;;;;;;;;;12.30;98.20;;;;;;5053384;28;19972;-68
2022/05/04 12:33:08;;;;;;;;;;;12.40;98.80;;;;;;5053040;28;20346;-69
2022/05/04 12:35:56;;;;;;;;;;;12.50;98.60;;;;;;5053547;28;19968;-68
2022/05/04 12:38:22;;;;;;;;;;;12.60;97.00;;;;;;5053156;28;20339;-68
2022/05/04 12:40:49;;;;;;;;;;;12.60;91.20;;;;;;5053155;28;19929;-70
2022/05/04 12:43:14;;;;;;;;;;;12.60;93.90;;;;;;5053117;28;19924;-68
2022/05/04 12:45:40;;;;;;;;;;;12.60;93.60;;;;;;5053226;28;19978;-69
2022/05/04 12:48:07;;;;;;;;;;;13.60;91.30;;;;;;5052939;28;20303;-69
2022/05/04 12:50:33;;;;;;;;;;;12.50;92.70;;;;;;5052142;28;19975;-69
2022/05/04 12:52:59;;;;;;;;;;;12.40;91.20;;;;;;5056892;28;19931;-68
2022/05/04 12:56:46;;;;;;;;;;;12.60;92.10;;;;;;5056961;28;20311;-70
2022/05/04 12:58:10;;;;;;;;;;;12.60;99.50;;;;;;5056936;28;20403;-68
2022/05/04 13:00:36;;;;;;;;;;;12.40;98.10;;;;;;5057128;28;19970;-69
2022/05/04 13:03:02;;;;;;;;;;;12.60;97.60;;;;;;5056961;28;20011;-68
2022/05/04 13:05:28;;;;;;;;;;;12.50;96.90;;;;;;5056805;28;20384;-68
2022/05/04 13:07:53;;;;;;;;;;;12.50;96.10;;;;;;5055601;28;19970;-69
2022/05/04 13:10:19;;;;;;;;;;;12.60;96.80;;;;;;5040076;28;19929;-69
2022/05/04 13:12:45;;;;;;;;;;;12.60;92.50;;;;;;5055532;28;20365;-70
2022/05/04 13:15:10;;;;;;;;;;;12.50;94.80;;;;;;5042622;28;20026;-70
2022/05/04 13:17:36;;;;;;;;;;;12.60;93.40;;;;;;5036626;28;19925;-70
2022/05/04 13:20:02;;;;;;;;;;;12.50;95.20;;;;;;5035850;28;19931;-70
2022/05/04 13:22:27;;;;;;;;;;;12.50;94.60;;;;;;5036648;28;19951;-68
2022/05/04 13:24:54;;;;;;;;;;;12.60;96.10;;;;;;5035098;28;19925;-68
2022/05/04 13:27:19;;;;;;;;;;;12.60;97.00;;;;;;5036347;28;20388;-69
2022/05/04 13:29:45;;;;;;;;;;;12.70;92.50;;;;;;5068987;28;20011;-69
2022/05/04 13:32:10;;;;;;;;;;;12.70;93.30;;;;;;5036379;28;20438;-68
2022/05/04 13:34:36;;;;;;;;;;;12.70;96.10;;;;;;5036535;28;20355;-71
2022/05/04 13:37:02;;;;;;;;;;;12.70;96.60;;;;;;5036299;28;19925;-68
2022/05/04 13:39:27;;;;;;;;;;;12.70;92.80;;;;;;5036362;28;19929;-68
2022/05/04 13:41:53;;;;;;;;;;;12.70;93.90;;;;;;5036178;28;19925;-69
2022/05/04 13:44:18;;;;;;;;;;;12.70;94.30;;;;;;5036012;28;20400;-69
2022/05/04 13:46:44;;;;;;;;;;;12.70;95.30;;;;;;5036045;28;19925;-69
2022/05/04 13:49:09;;;;;;;;;;;13.30;97.70;;;;;;5035222;28;19929;-68
2022/05/04 13:54:20;;;;;;;;;;;12.80;95.30;;;;;;5034843;28;20295;-69
2022/05/04 13:56:46;;;;;;;;;;;12.80;95.20;;;;;;5035764;28;20307;-70
2022/05/04 13:59:11;;;;;;;;;;;12.80;95.30;;;;;;5036061;28;19925;-69
2022/05/04 14:01:38;;;;;;;;;;;12.80;95.70;;;;;;5034736;28;19929;-69
2022/05/04 14:04:04;;;;;;;;;;;12.70;93.30;;;;;;5034224;28;20293;-67
2022/05/04 14:06:29;;;;;;;;;;;12.70;93.90;;;;;;5067941;28;20396;-70
2022/05/04 14:08:58;;;;;;;;;;;11.60;95.40;;;;;;5034556;28;19933;-68
2022/05/04 14:11:31;;;;;;;;;;;12.80;95.20;;;;;;5034304;28;19925;-68
2022/05/04 14:16:40;;;;;;;;;;;12.80;94.90;;;;;;5035292;28;20410;-69
2022/05/04 14:19:06;;;;;;;;;;;12.80;95.60;;;;;;5035504;28;19925;-69
2022/05/04 14:21:32;;;;;;;;;;;12.90;95.50;;;;;;5034524;28;19932;-68
2022/05/04 14:23:57;;;;;;;;;;;12.90;97.60;;;;;;5035518;28;19929;-69
2022/05/04 14:26:23;;;;;;;;;;;13.00;94.90;;;;;;5035375;28;20298;-69
2022/05/04 14:28:48;;;;;;;;;;;13.00;94.10;;;;;;5067524;28;19925;-67
2022/05/04 14:31:29;;;;;;;;;;;13.10;91.80;;;;;;5035193;28;19925;-68
2022/05/04 14:33:54;;;;;;;;;;;13.10;95.30;;;;;;5034423;28;19960;-70
2022/05/04 14:36:20;;;;;;;;;;;13.10;95.70;;;;;;5035177;28;19968;-70
2022/05/04 14:38:45;;;;;;;;;;;13.10;96.70;;;;;;5035178;28;19932;-69
2022/05/04 14:41:11;;;;;;;;;;;13.20;95.50;;;;;;5034294;28;19931;-69
2022/05/04 14:43:37;;;;;;;;;;;13.20;92.90;;;;;;5034228;28;20292;-70
2022/05/04 14:46:02;;;;;;;;;;;13.30;95.20;;;;;;5035026;28;19932;-68
2022/05/04 14:48:28;;;;;;;;;;;13.30;92.50;;;;;;5034864;28;20010;-68
2022/05/04 14:50:53;;;;;;;;;;;13.30;92.60;;;;;;5034543;28;19925;-67
2022/05/04 14:53:19;;;;;;;;;;;13.30;91.90;;;;;;5034661;28;19932;-68
2022/05/04 14:55:44;;;;;;;;;;;13.40;92.00;;;;;;5034949;28;19925;-68
2022/05/04 14:58:10;;;;;;;;;;;13.40;91.60;;;;;;5034652;28;19925;-68
2022/05/04 15:00:35;;;;;;;;;;;13.50;92.60;;;;;;5034986;28;20007;-70
2022/05/04 15:05:46;;;;;;;;;;;13.60;90.70;;;;;;5034191;28;19932;-69